sensor_id;sensor_type;location;lat;lon;timestamp;temperature;humidity
23186;DHT22;11761;51.324;4.590;2022-12-07T00:01:29;4.40;99.90
23186;DHT22;11761;51.324;4.590;2022-12-07T00:03:58;4.60;99.90
23186;DHT22;11761;51.324;4.590;2022-12-07T00:06:35;4.70;99.90
23186;DHT22;11761;51.324;4.590;2022-12-07T00:09:01;4.80;99.90
23186;DHT22;11761;51.324;4.590;2022-12-07T00:11:27;5.00;99.90
23186;DHT22;11761;51.324;4.590;2022-12-07T00:13:56;5.20;99.90
23186;DHT22;11761;51.324;4.590;2022-12-07T00:16:24;5.30;99.90
23186;DHT22;11761;51.324;4.590;2022-12-07T00:18:50;5.30;99.90
23186;DHT22;11761;51.324;4.590;2022-12-07T00:21:19;5.30;99.90
23186;DHT22;11761;51.324;4.590;2022-12-07T00:23:46;5.30;99.90
23186;DHT22;11761;51.324;4.590;2022-12-07T00:26:22;5.30;99.90
23186;DHT22;11761;51.324;4.590;2022-12-07T00:28:57;5.30;99.90
23186;DHT22;11761;51.324;4.590;2022-12-07T00:31:26;5.30;99.90
23186;DHT22;11761;51.324;4.590;2022-12-07T00:33:53;5.30;99.90
23186;DHT22;11761;51.324;4.590;2022-12-07T00:36:21;5.40;99.90
23186;DHT22;11761;51.324;4.590;2022-12-07T00:38:48;5.50;99.90
23186;DHT22;11761;51.324;4.590;2022-12-07T00:41:19;5.50;99.90
23186;DHT22;11761;51.324;4.590;2022-12-07T00:43:47;5.50;99.90
23186;DHT22;11761;51.324;4.590;2022-12-07T00:46:14;5.50;99.90
23186;DHT22;11761;51.324;4.590;2022-12-07T00:48:41;5.50;99.90
23186;DHT22;11761;51.324;4.590;2022-12-07T00:51:07;5.40;99.90
23186;DHT22;11761;51.324;4.590;2022-12-07T00:53:35;5.40;99.90
23186;DHT22;11761;51.324;4.590;2022-12-07T00:56:21;5.30;99.90
23186;DHT22;11761;51.324;4.590;2022-12-07T00:58:56;5.30;99.90
23186;DHT22;11761;51.324;4.590;2022-12-07T01:01:23;5.30;99.90
23186;DHT22;11761;51.324;4.590;2022-12-07T01:03:49;5.30;99.90
23186;DHT22;11761;51.324;4.590;2022-12-07T01:06:17;5.20;99.90
23186;DHT22;11761;51.324;4.590;2022-12-07T01:08:44;5.10;99.90
23186;DHT22;11761;51.324;4.590;2022-12-07T01:11:14;4.80;99.90
23186;DHT22;11761;51.324;4.590;2022-12-07T01:13:41;4.70;99.90
23186;DHT22;11761;51.324;4.590;2022-12-07T01:16:08;4.60;99.90
23186;DHT22;11761;51.324;4.590;2022-12-07T01:18:35;4.70;99.90
23186;DHT22;11761;51.324;4.590;2022-12-07T01:21:08;4.70;99.90
23186;DHT22;11761;51.324;4.590;2022-12-07T01:23:35;4.70;99.90
23186;DHT22;11761;51.324;4.590;2022-12-07T01:26:05;4.60;99.90
23186;DHT22;11761;51.324;4.590;2022-12-07T01:28:32;4.60;99.90
23186;DHT22;11761;51.324;4.590;2022-12-07T01:31:06;4.60;99.90
23186;DHT22;11761;51.324;4.590;2022-12-07T01:33:34;4.60;99.90
23186;DHT22;11761;51.324;4.590;2022-12-07T01:38:54;4.50;99.90
23186;DHT22;11761;51.324;4.590;2022-12-07T01:41:24;4.30;99.90
23186;DHT22;11761;51.324;4.590;2022-12-07T01:46:35;4.10;99.90
23186;DHT22;11761;51.324;4.590;2022-12-07T01:49:04;4.00;99.90
23186;DHT22;11761;51.324;4.590;2022-12-07T01:51:32;3.90;99.90
23186;DHT22;11761;51.324;4.590;2022-12-07T01:53:58;3.90;99.90
23186;DHT22;11761;51.324;4.590;2022-12-07T01:56:26;3.90;99.90
23186;DHT22;11761;51.324;4.590;2022-12-07T01:58:55;3.80;99.90
23186;DHT22;11761;51.324;4.590;2022-12-07T02:01:22;3.80;99.90
23186;DHT22;11761;51.324;4.590;2022-12-07T02:03:48;3.80;99.90
23186;DHT22;11761;51.324;4.590;2022-12-07T02:06:19;3.90;99.90
23186;DHT22;11761;51.324;4.590;2022-12-07T02:08:46;4.00;99.90
23186;DHT22;11761;51.324;4.590;2022-12-07T02:11:13;4.10;99.90
23186;DHT22;11761;51.324;4.590;2022-12-07T02:13:41;4.20;99.90
23186;DHT22;11761;51.324;4.590;2022-12-07T02:30:05;4.70;99.90
23186;DHT22;11761;51.324;4.590;2022-12-07T02:32:53;4.80;99.90
23186;DHT22;11761;51.324;4.590;2022-12-07T02:35:44;4.90;99.90
23186;DHT22;11761;51.324;4.590;2022-12-07T02:38:22;4.90;99.90
23186;DHT22;11761;51.324;4.590;2022-12-07T02:41:02;4.80;99.90
23186;DHT22;11761;51.324;4.590;2022-12-07T02:43:53;4.70;99.90
23186;DHT22;11761;51.324;4.590;2022-12-07T02:46:27;4.60;99.90
23186;DHT22;11761;51.324;4.590;2022-12-07T02:48:55;4.50;99.90
23186;DHT22;11761;51.324;4.590;2022-12-07T02:51:22;4.30;99.90
23186;DHT22;11761;51.324;4.590;2022-12-07T02:53:48;4.20;99.90
23186;DHT22;11761;51.324;4.590;2022-12-07T03:10:50;3.00;99.90
23186;DHT22;11761;51.324;4.590;2022-12-07T03:13:34;2.90;99.90
23186;DHT22;11761;51.324;4.590;2022-12-07T03:16:04;2.80;99.90
23186;DHT22;11761;51.324;4.590;2022-12-07T03:18:39;2.80;99.90
23186;DHT22;11761;51.324;4.590;2022-12-07T03:21:11;2.70;99.90
23186;DHT22;11761;51.324;4.590;2022-12-07T03:23:40;2.70;99.90
23186;DHT22;11761;51.324;4.590;2022-12-07T03:26:11;2.80;99.90
23186;DHT22;11761;51.324;4.590;2022-12-07T03:28:42;2.70;99.90
23186;DHT22;11761;51.324;4.590;2022-12-07T03:31:22;2.60;99.90
23186;DHT22;11761;51.324;4.590;2022-12-07T03:34:15;2.60;99.90
23186;DHT22;11761;51.324;4.590;2022-12-07T03:36:55;2.40;99.90
23186;DHT22;11761;51.324;4.590;2022-12-07T03:39:57;2.30;99.90
23186;DHT22;11761;51.324;4.590;2022-12-07T03:42:26;2.30;99.90
23186;DHT22;11761;51.324;4.590;2022-12-07T03:44:53;2.30;99.90
23186;DHT22;11761;51.324;4.590;2022-12-07T03:53:10;2.50;99.90
23186;DHT22;11761;51.324;4.590;2022-12-07T03:55:39;2.60;99.90
23186;DHT22;11761;51.324;4.590;2022-12-07T03:58:11;2.60;99.90
23186;DHT22;11761;51.324;4.590;2022-12-07T04:00:38;2.70;99.90
23186;DHT22;11761;51.324;4.590;2022-12-07T04:03:04;3.00;99.90
23186;DHT22;11761;51.324;4.590;2022-12-07T04:05:30;3.10;99.90
23186;DHT22;11761;51.324;4.590;2022-12-07T04:07:56;3.30;99.90
23186;DHT22;11761;51.324;4.590;2022-12-07T04:10:22;3.40;99.90
23186;DHT22;11761;51.324;4.590;2022-12-07T04:12:48;3.50;99.90
23186;DHT22;11761;51.324;4.590;2022-12-07T04:15:14;3.60;99.90
23186;DHT22;11761;51.324;4.590;2022-12-07T04:17:41;3.80;99.90
23186;DHT22;11761;51.324;4.590;2022-12-07T04:20:07;3.90;99.90
23186;DHT22;11761;51.324;4.590;2022-12-07T04:22:34;3.80;99.90
23186;DHT22;11761;51.324;4.590;2022-12-07T04:25:00;3.80;99.90
23186;DHT22;11761;51.324;4.590;2022-12-07T04:27:26;3.60;99.90
23186;DHT22;11761;51.324;4.590;2022-12-07T04:29:52;3.60;99.90
23186;DHT22;11761;51.324;4.590;2022-12-07T04:32:18;3.50;99.90
23186;DHT22;11761;51.324;4.590;2022-12-07T04:34:44;3.40;99.90
23186;DHT22;11761;51.324;4.590;2022-12-07T04:37:10;3.40;99.90
23186;DHT22;11761;51.324;4.590;2022-12-07T04:39:36;3.40;99.90
23186;DHT22;11761;51.324;4.590;2022-12-07T04:42:03;3.30;99.90
23186;DHT22;11761;51.324;4.590;2022-12-07T04:44:30;3.30;99.90
23186;DHT22;11761;51.324;4.590;2022-12-07T04:46:56;3.20;99.90
23186;DHT22;11761;51.324;4.590;2022-12-07T04:49:23;3.20;99.90
23186;DHT22;11761;51.324;4.590;2022-12-07T04:51:50;3.10;99.90
23186;DHT22;11761;51.324;4.590;2022-12-07T04:54:17;3.20;99.90
23186;DHT22;11761;51.324;4.590;2022-12-07T04:56:43;3.20;99.90
23186;DHT22;11761;51.324;4.590;2022-12-07T04:59:11;3.20;99.90
23186;DHT22;11761;51.324;4.590;2022-12-07T05:01:37;3.20;99.90
23186;DHT22;11761;51.324;4.590;2022-12-07T05:04:04;3.20;99.90
23186;DHT22;11761;51.324;4.590;2022-12-07T05:06:30;3.20;99.90
23186;DHT22;11761;51.324;4.590;2022-12-07T05:08:56;3.20;99.90
23186;DHT22;11761;51.324;4.590;2022-12-07T05:11:22;3.20;99.90
23186;DHT22;11761;51.324;4.590;2022-12-07T05:14:14;3.20;99.90
23186;DHT22;11761;51.324;4.590;2022-12-07T05:16:40;3.20;99.90
23186;DHT22;11761;51.324;4.590;2022-12-07T05:19:08;3.20;99.90
23186;DHT22;11761;51.324;4.590;2022-12-07T05:21:35;3.10;99.90
23186;DHT22;11761;51.324;4.590;2022-12-07T05:24:02;3.10;99.90
23186;DHT22;11761;51.324;4.590;2022-12-07T05:26:28;3.10;99.90
23186;DHT22;11761;51.324;4.590;2022-12-07T05:28:55;3.00;99.90
23186;DHT22;11761;51.324;4.590;2022-12-07T05:31:22;2.90;99.90
23186;DHT22;11761;51.324;4.590;2022-12-07T05:33:49;2.80;99.90
23186;DHT22;11761;51.324;4.590;2022-12-07T05:36:15;2.70;99.90
23186;DHT22;11761;51.324;4.590;2022-12-07T05:38:41;2.50;99.90
23186;DHT22;11761;51.324;4.590;2022-12-07T05:41:08;2.40;99.90
23186;DHT22;11761;51.324;4.590;2022-12-07T05:43:55;2.20;99.90
23186;DHT22;11761;51.324;4.590;2022-12-07T05:46:22;2.00;99.90
23186;DHT22;11761;51.324;4.590;2022-12-07T05:48:48;1.90;99.90
23186;DHT22;11761;51.324;4.590;2022-12-07T05:51:14;1.90;99.90
23186;DHT22;11761;51.324;4.590;2022-12-07T05:53:40;1.90;99.90
23186;DHT22;11761;51.324;4.590;2022-12-07T05:56:06;1.90;99.90
23186;DHT22;11761;51.324;4.590;2022-12-07T05:58:32;2.00;99.90
23186;DHT22;11761;51.324;4.590;2022-12-07T06:01:17;2.10;99.90
23186;DHT22;11761;51.324;4.590;2022-12-07T06:03:44;2.30;99.90
23186;DHT22;11761;51.324;4.590;2022-12-07T06:06:11;2.40;99.90
23186;DHT22;11761;51.324;4.590;2022-12-07T06:08:37;2.50;99.90
23186;DHT22;11761;51.324;4.590;2022-12-07T06:11:03;2.60;99.90
23186;DHT22;11761;51.324;4.590;2022-12-07T06:13:48;2.70;99.90
23186;DHT22;11761;51.324;4.590;2022-12-07T06:16:14;2.60;99.90
23186;DHT22;11761;51.324;4.590;2022-12-07T06:18:40;2.50;99.90
23186;DHT22;11761;51.324;4.590;2022-12-07T06:21:06;2.40;99.90
23186;DHT22;11761;51.324;4.590;2022-12-07T06:23:33;2.30;99.90
23186;DHT22;11761;51.324;4.590;2022-12-07T06:25:59;2.30;99.90
23186;DHT22;11761;51.324;4.590;2022-12-07T06:28:25;2.20;99.90
23186;DHT22;11761;51.324;4.590;2022-12-07T06:30:58;2.10;99.90
23186;DHT22;11761;51.324;4.590;2022-12-07T06:33:25;2.00;99.90
23186;DHT22;11761;51.324;4.590;2022-12-07T06:35:51;1.90;99.90
23186;DHT22;11761;51.324;4.590;2022-12-07T06:38:17;1.80;99.90
23186;DHT22;11761;51.324;4.590;2022-12-07T06:40:43;1.60;99.90
23186;DHT22;11761;51.324;4.590;2022-12-07T06:43:10;1.70;99.90
23186;DHT22;11761;51.324;4.590;2022-12-07T06:45:36;1.70;99.90
23186;DHT22;11761;51.324;4.590;2022-12-07T06:48:02;1.60;99.90
23186;DHT22;11761;51.324;4.590;2022-12-07T06:50:28;1.50;99.90
23186;DHT22;11761;51.324;4.590;2022-12-07T06:52:54;1.40;99.90
23186;DHT22;11761;51.324;4.590;2022-12-07T06:55:20;1.40;99.90
23186;DHT22;11761;51.324;4.590;2022-12-07T06:57:46;1.30;99.90
23186;DHT22;11761;51.324;4.590;2022-12-07T07:00:13;1.20;99.90
23186;DHT22;11761;51.324;4.590;2022-12-07T07:02:39;1.20;99.90
23186;DHT22;11761;51.324;4.590;2022-12-07T07:05:06;1.20;99.90
23186;DHT22;11761;51.324;4.590;2022-12-07T07:07:32;1.10;99.90
23186;DHT22;11761;51.324;4.590;2022-12-07T07:09:58;1.10;99.90
23186;DHT22;11761;51.324;4.590;2022-12-07T07:12:24;1.10;99.90
23186;DHT22;11761;51.324;4.590;2022-12-07T07:14:50;1.20;99.90
23186;DHT22;11761;51.324;4.590;2022-12-07T07:17:17;1.30;99.90
23186;DHT22;11761;51.324;4.590;2022-12-07T07:19:43;1.50;99.90
23186;DHT22;11761;51.324;4.590;2022-12-07T07:22:09;1.70;99.90
23186;DHT22;11761;51.324;4.590;2022-12-07T07:24:35;1.80;99.90
23186;DHT22;11761;51.324;4.590;2022-12-07T07:27:01;1.80;99.90
23186;DHT22;11761;51.324;4.590;2022-12-07T07:29:27;1.90;99.90
23186;DHT22;11761;51.324;4.590;2022-12-07T07:31:53;2.00;99.90
23186;DHT22;11761;51.324;4.590;2022-12-07T07:34:19;2.00;99.90
23186;DHT22;11761;51.324;4.590;2022-12-07T07:36:46;2.10;99.90
23186;DHT22;11761;51.324;4.590;2022-12-07T07:39:12;2.30;99.90
23186;DHT22;11761;51.324;4.590;2022-12-07T07:41:41;2.30;99.90
23186;DHT22;11761;51.324;4.590;2022-12-07T07:44:07;2.40;99.90
23186;DHT22;11761;51.324;4.590;2022-12-07T07:46:33;2.40;99.90
23186;DHT22;11761;51.324;4.590;2022-12-07T07:48:59;2.40;99.90
23186;DHT22;11761;51.324;4.590;2022-12-07T07:51:25;2.30;99.90
23186;DHT22;11761;51.324;4.590;2022-12-07T07:53:51;2.30;99.90
23186;DHT22;11761;51.324;4.590;2022-12-07T07:56:17;2.30;99.90
23186;DHT22;11761;51.324;4.590;2022-12-07T07:58:44;2.40;99.90
23186;DHT22;11761;51.324;4.590;2022-12-07T08:01:10;2.50;99.90
23186;DHT22;11761;51.324;4.590;2022-12-07T08:03:36;2.60;99.90
23186;DHT22;11761;51.324;4.590;2022-12-07T08:06:03;2.70;99.90
23186;DHT22;11761;51.324;4.590;2022-12-07T08:08:29;2.70;99.90
23186;DHT22;11761;51.324;4.590;2022-12-07T08:10:55;2.90;99.90
23186;DHT22;11761;51.324;4.590;2022-12-07T08:13:21;3.00;99.90
23186;DHT22;11761;51.324;4.590;2022-12-07T08:15:48;3.20;99.90
23186;DHT22;11761;51.324;4.590;2022-12-07T08:18:15;3.40;99.90
23186;DHT22;11761;51.324;4.590;2022-12-07T08:20:41;3.60;99.90
23186;DHT22;11761;51.324;4.590;2022-12-07T08:23:09;3.70;99.90
23186;DHT22;11761;51.324;4.590;2022-12-07T08:25:36;3.90;99.90
23186;DHT22;11761;51.324;4.590;2022-12-07T08:28:02;4.00;99.90
23186;DHT22;11761;51.324;4.590;2022-12-07T08:30:29;4.00;99.90
23186;DHT22;11761;51.324;4.590;2022-12-07T08:32:59;4.00;99.90
23186;DHT22;11761;51.324;4.590;2022-12-07T08:35:26;4.20;99.90
23186;DHT22;11761;51.324;4.590;2022-12-07T08:37:52;4.20;99.90
23186;DHT22;11761;51.324;4.590;2022-12-07T08:40:18;4.30;99.90
23186;DHT22;11761;51.324;4.590;2022-12-07T08:42:50;4.40;99.90
23186;DHT22;11761;51.324;4.590;2022-12-07T08:45:18;4.50;99.90
23186;DHT22;11761;51.324;4.590;2022-12-07T08:48:08;4.60;99.90
23186;DHT22;11761;51.324;4.590;2022-12-07T08:50:37;4.70;99.90
23186;DHT22;11761;51.324;4.590;2022-12-07T08:53:04;4.80;99.90
23186;DHT22;11761;51.324;4.590;2022-12-07T08:55:31;4.90;99.90
23186;DHT22;11761;51.324;4.590;2022-12-07T08:57:59;5.00;99.90
23186;DHT22;11761;51.324;4.590;2022-12-07T09:00:26;5.10;99.90
23186;DHT22;11761;51.324;4.590;2022-12-07T09:02:53;5.10;99.90
23186;DHT22;11761;51.324;4.590;2022-12-07T09:05:20;5.20;99.90
23186;DHT22;11761;51.324;4.590;2022-12-07T09:07:50;5.30;99.90
23186;DHT22;11761;51.324;4.590;2022-12-07T09:10:17;5.30;99.90
23186;DHT22;11761;51.324;4.590;2022-12-07T09:12:43;5.30;99.90
23186;DHT22;11761;51.324;4.590;2022-12-07T09:15:10;5.40;99.90
23186;DHT22;11761;51.324;4.590;2022-12-07T09:17:36;5.50;99.90
23186;DHT22;11761;51.324;4.590;2022-12-07T09:20:05;5.60;99.90
23186;DHT22;11761;51.324;4.590;2022-12-07T09:22:32;5.70;99.90
23186;DHT22;11761;51.324;4.590;2022-12-07T09:24:59;5.70;99.90
23186;DHT22;11761;51.324;4.590;2022-12-07T09:27:26;5.80;99.90
23186;DHT22;11761;51.324;4.590;2022-12-07T09:29:52;5.90;99.90
23186;DHT22;11761;51.324;4.590;2022-12-07T09:32:19;6.00;99.90
23186;DHT22;11761;51.324;4.590;2022-12-07T09:34:45;6.00;99.90
23186;DHT22;11761;51.324;4.590;2022-12-07T09:37:11;6.10;99.90
23186;DHT22;11761;51.324;4.590;2022-12-07T09:39:38;6.20;99.90
23186;DHT22;11761;51.324;4.590;2022-12-07T09:42:05;6.40;99.90
23186;DHT22;11761;51.324;4.590;2022-12-07T09:44:33;6.50;99.90
23186;DHT22;11761;51.324;4.590;2022-12-07T09:46:59;6.70;99.90
23186;DHT22;11761;51.324;4.590;2022-12-07T09:49:29;6.80;99.90
23186;DHT22;11761;51.324;4.590;2022-12-07T09:54:36;6.90;99.90
23186;DHT22;11761;51.324;4.590;2022-12-07T09:57:04;6.90;99.90
23186;DHT22;11761;51.324;4.590;2022-12-07T09:59:30;6.90;99.90
23186;DHT22;11761;51.324;4.590;2022-12-07T10:02:36;6.80;99.90
23186;DHT22;11761;51.324;4.590;2022-12-07T10:05:05;6.80;99.90
23186;DHT22;11761;51.324;4.590;2022-12-07T10:07:31;6.80;99.90
23186;DHT22;11761;51.324;4.590;2022-12-07T10:09:57;6.80;99.90
23186;DHT22;11761;51.324;4.590;2022-12-07T10:12:24;6.70;99.90
23186;DHT22;11761;51.324;4.590;2022-12-07T10:15:00;6.60;99.90
23186;DHT22;11761;51.324;4.590;2022-12-07T10:17:31;6.60;99.90
23186;DHT22;11761;51.324;4.590;2022-12-07T10:20:23;6.70;99.90
23186;DHT22;11761;51.324;4.590;2022-12-07T10:25:34;6.80;99.90
23186;DHT22;11761;51.324;4.590;2022-12-07T10:36:01;7.00;99.90
23186;DHT22;11761;51.324;4.590;2022-12-07T10:38:45;7.10;99.90
23186;DHT22;11761;51.324;4.590;2022-12-07T10:41:12;7.20;99.90
23186;DHT22;11761;51.324;4.590;2022-12-07T10:43:50;7.20;99.90
23186;DHT22;11761;51.324;4.590;2022-12-07T10:46:58;7.40;99.90
23186;DHT22;11761;51.324;4.590;2022-12-07T10:49:50;7.40;99.90
23186;DHT22;11761;51.324;4.590;2022-12-07T11:00:39;7.60;99.90
23186;DHT22;11761;51.324;4.590;2022-12-07T11:14:36;7.80;99.90
23186;DHT22;11761;51.324;4.590;2022-12-07T11:17:10;7.80;99.90
23186;DHT22;11761;51.324;4.590;2022-12-07T11:19:50;7.80;99.90
23186;DHT22;11761;51.324;4.590;2022-12-07T11:31:22;7.80;99.90
23186;DHT22;11761;51.324;4.590;2022-12-07T11:34:00;7.70;99.90
23186;DHT22;11761;51.324;4.590;2022-12-07T11:36:46;7.50;99.90
23186;DHT22;11761;51.324;4.590;2022-12-07T11:39:23;7.50;99.90
23186;DHT22;11761;51.324;4.590;2022-12-07T11:41:57;7.30;99.90
23186;DHT22;11761;51.324;4.590;2022-12-07T11:52:55;7.20;99.90
23186;DHT22;11761;51.324;4.590;2022-12-07T11:55:32;7.30;99.90
23186;DHT22;11761;51.324;4.590;2022-12-07T12:00:39;8.00;99.90
23186;DHT22;11761;51.324;4.590;2022-12-07T12:03:12;7.90;99.90
23186;DHT22;11761;51.324;4.590;2022-12-07T12:05:41;7.90;99.90
23186;DHT22;11761;51.324;4.590;2022-12-07T12:08:33;7.80;99.90
23186;DHT22;11761;51.324;4.590;2022-12-07T12:19:41;7.80;99.90
23186;DHT22;11761;51.324;4.590;2022-12-07T12:22:21;7.70;99.90
23186;DHT22;11761;51.324;4.590;2022-12-07T12:24:51;7.70;99.90
23186;DHT22;11761;51.324;4.590;2022-12-07T12:27:38;7.60;99.90
23186;DHT22;11761;51.324;4.590;2022-12-07T12:30:22;7.60;99.90
23186;DHT22;11761;51.324;4.590;2022-12-07T12:32:49;7.70;99.90
23186;DHT22;11761;51.324;4.590;2022-12-07T12:35:34;7.90;99.90
23186;DHT22;11761;51.324;4.590;2022-12-07T12:38:26;7.90;99.90
23186;DHT22;11761;51.324;4.590;2022-12-07T12:40:54;8.00;99.90
23186;DHT22;11761;51.324;4.590;2022-12-07T12:43:41;7.90;99.90
23186;DHT22;11761;51.324;4.590;2022-12-07T12:51:54;8.60;99.90
23186;DHT22;11761;51.324;4.590;2022-12-07T12:57:35;8.30;99.90
23186;DHT22;11761;51.324;4.590;2022-12-07T13:02:36;8.30;99.90
23186;DHT22;11761;51.324;4.590;2022-12-07T13:26:18;7.30;99.90
23186;DHT22;11761;51.324;4.590;2022-12-07T13:29:09;7.30;99.90
23186;DHT22;11761;51.324;4.590;2022-12-07T13:31:41;7.30;99.90
23186;DHT22;11761;51.324;4.590;2022-12-07T13:34:46;7.30;99.90
23186;DHT22;11761;51.324;4.590;2022-12-07T13:37:20;7.30;99.90
23186;DHT22;11761;51.324;4.590;2022-12-07T13:40:01;7.30;99.90
23186;DHT22;11761;51.324;4.590;2022-12-07T13:42:38;7.20;99.90
23186;DHT22;11761;51.324;4.590;2022-12-07T13:45:31;7.20;99.90
23186;DHT22;11761;51.324;4.590;2022-12-07T13:48:31;7.20;99.90
23186;DHT22;11761;51.324;4.590;2022-12-07T13:50:59;7.30;99.90
23186;DHT22;11761;51.324;4.590;2022-12-07T13:53:27;7.40;99.90
23186;DHT22;11761;51.324;4.590;2022-12-07T13:55:57;7.90;99.90
23186;DHT22;11761;51.324;4.590;2022-12-07T13:58:25;8.50;99.90
23186;DHT22;11761;51.324;4.590;2022-12-07T14:00:52;8.60;99.90
23186;DHT22;11761;51.324;4.590;2022-12-07T14:05:44;8.10;99.90
23186;DHT22;11761;51.324;4.590;2022-12-07T14:13:47;7.20;99.90
23186;DHT22;11761;51.324;4.590;2022-12-07T14:16:43;7.00;99.90
23186;DHT22;11761;51.324;4.590;2022-12-07T14:22:35;7.10;99.90
23186;DHT22;11761;51.324;4.590;2022-12-07T14:25:16;7.00;99.90
23186;DHT22;11761;51.324;4.590;2022-12-07T14:28:01;7.00;99.90
23186;DHT22;11761;51.324;4.590;2022-12-07T14:30:32;7.00;99.90
23186;DHT22;11761;51.324;4.590;2022-12-07T14:33:04;7.00;99.90
23186;DHT22;11761;51.324;4.590;2022-12-07T14:35:31;7.00;99.90
23186;DHT22;11761;51.324;4.590;2022-12-07T14:37:58;6.90;99.90
23186;DHT22;11761;51.324;4.590;2022-12-07T14:40:26;6.80;99.90
23186;DHT22;11761;51.324;4.590;2022-12-07T14:43:06;6.70;99.90
23186;DHT22;11761;51.324;4.590;2022-12-07T14:45:32;6.70;99.90
23186;DHT22;11761;51.324;4.590;2022-12-07T14:47:58;6.70;99.90
23186;DHT22;11761;51.324;4.590;2022-12-07T14:50:24;6.60;99.90
23186;DHT22;11761;51.324;4.590;2022-12-07T14:52:55;6.50;99.90
23186;DHT22;11761;51.324;4.590;2022-12-07T14:55:28;6.50;99.90
23186;DHT22;11761;51.324;4.590;2022-12-07T14:57:55;6.40;99.90
23186;DHT22;11761;51.324;4.590;2022-12-07T15:00:24;6.30;99.90
23186;DHT22;11761;51.324;4.590;2022-12-07T15:02:51;6.30;99.90
23186;DHT22;11761;51.324;4.590;2022-12-07T15:05:18;6.20;99.90
23186;DHT22;11761;51.324;4.590;2022-12-07T15:07:46;6.20;99.90
23186;DHT22;11761;51.324;4.590;2022-12-07T15:10:20;6.10;99.90
23186;DHT22;11761;51.324;4.590;2022-12-07T15:12:46;6.00;99.90
23186;DHT22;11761;51.324;4.590;2022-12-07T15:15:13;5.90;99.90
23186;DHT22;11761;51.324;4.590;2022-12-07T15:17:39;5.80;99.90
23186;DHT22;11761;51.324;4.590;2022-12-07T15:20:10;5.70;99.90
23186;DHT22;11761;51.324;4.590;2022-12-07T15:22:37;5.70;99.90
23186;DHT22;11761;51.324;4.590;2022-12-07T15:25:03;5.70;99.90
23186;DHT22;11761;51.324;4.590;2022-12-07T15:27:31;5.70;99.90
23186;DHT22;11761;51.324;4.590;2022-12-07T15:29:57;5.60;99.90
23186;DHT22;11761;51.324;4.590;2022-12-07T15:32:23;5.60;99.90
23186;DHT22;11761;51.324;4.590;2022-12-07T15:34:49;5.50;99.90
23186;DHT22;11761;51.324;4.590;2022-12-07T15:37:16;5.50;99.90
23186;DHT22;11761;51.324;4.590;2022-12-07T15:39:42;5.50;99.90
23186;DHT22;11761;51.324;4.590;2022-12-07T15:42:08;5.30;99.90
23186;DHT22;11761;51.324;4.590;2022-12-07T15:44:34;5.20;99.90
23186;DHT22;11761;51.324;4.590;2022-12-07T15:47:19;5.10;99.90
23186;DHT22;11761;51.324;4.590;2022-12-07T15:49:45;5.00;99.90
23186;DHT22;11761;51.324;4.590;2022-12-07T15:52:11;4.90;99.90
23186;DHT22;11761;51.324;4.590;2022-12-07T15:54:37;4.80;99.90
23186;DHT22;11761;51.324;4.590;2022-12-07T15:57:03;4.80;99.90
23186;DHT22;11761;51.324;4.590;2022-12-07T15:59:30;4.70;99.90
23186;DHT22;11761;51.324;4.590;2022-12-07T16:01:56;4.70;99.90
23186;DHT22;11761;51.324;4.590;2022-12-07T16:04:22;4.70;99.90
23186;DHT22;11761;51.324;4.590;2022-12-07T16:06:48;4.70;99.90
23186;DHT22;11761;51.324;4.590;2022-12-07T16:09:17;4.60;99.90
23186;DHT22;11761;51.324;4.590;2022-12-07T16:11:43;4.60;99.90
23186;DHT22;11761;51.324;4.590;2022-12-07T16:14:09;4.60;99.90
23186;DHT22;11761;51.324;4.590;2022-12-07T16:16:35;4.50;99.90
23186;DHT22;11761;51.324;4.590;2022-12-07T16:19:01;4.40;99.90
23186;DHT22;11761;51.324;4.590;2022-12-07T16:21:28;4.40;99.90
23186;DHT22;11761;51.324;4.590;2022-12-07T16:23:57;4.30;99.90
23186;DHT22;11761;51.324;4.590;2022-12-07T16:26:24;4.30;99.90
23186;DHT22;11761;51.324;4.590;2022-12-07T16:28:51;4.30;99.90
23186;DHT22;11761;51.324;4.590;2022-12-07T16:31:20;4.30;99.90
23186;DHT22;11761;51.324;4.590;2022-12-07T16:33:47;4.40;99.90
23186;DHT22;11761;51.324;4.590;2022-12-07T16:36:14;4.60;99.90
23186;DHT22;11761;51.324;4.590;2022-12-07T16:38:42;4.60;99.90
23186;DHT22;11761;51.324;4.590;2022-12-07T16:41:09;4.60;99.90
23186;DHT22;11761;51.324;4.590;2022-12-07T16:43:35;4.60;99.90
23186;DHT22;11761;51.324;4.590;2022-12-07T16:46:03;4.60;99.90
23186;DHT22;11761;51.324;4.590;2022-12-07T16:48:29;4.60;99.90
23186;DHT22;11761;51.324;4.590;2022-12-07T16:50:55;4.60;99.90
23186;DHT22;11761;51.324;4.590;2022-12-07T16:53:23;4.60;99.90
23186;DHT22;11761;51.324;4.590;2022-12-07T16:55:49;4.60;99.90
23186;DHT22;11761;51.324;4.590;2022-12-07T16:58:16;4.70;99.90
23186;DHT22;11761;51.324;4.590;2022-12-07T17:00:43;4.80;99.90
23186;DHT22;11761;51.324;4.590;2022-12-07T17:03:10;4.90;99.90
23186;DHT22;11761;51.324;4.590;2022-12-07T17:05:39;5.00;99.90
23186;DHT22;11761;51.324;4.590;2022-12-07T17:08:05;5.10;99.90
23186;DHT22;11761;51.324;4.590;2022-12-07T17:10:33;5.10;99.90
23186;DHT22;11761;51.324;4.590;2022-12-07T17:13:02;5.10;99.90
23186;DHT22;11761;51.324;4.590;2022-12-07T17:15:28;5.20;99.90
23186;DHT22;11761;51.324;4.590;2022-12-07T17:17:56;5.10;99.90
23186;DHT22;11761;51.324;4.590;2022-12-07T17:20:24;5.20;99.90
23186;DHT22;11761;51.324;4.590;2022-12-07T17:22:51;5.20;99.90
23186;DHT22;11761;51.324;4.590;2022-12-07T17:25:18;5.20;99.90
23186;DHT22;11761;51.324;4.590;2022-12-07T17:27:46;5.20;99.90
23186;DHT22;11761;51.324;4.590;2022-12-07T17:30:13;5.10;99.90
23186;DHT22;11761;51.324;4.590;2022-12-07T17:32:39;5.10;99.90
23186;DHT22;11761;51.324;4.590;2022-12-07T17:35:06;5.10;99.90
23186;DHT22;11761;51.324;4.590;2022-12-07T17:37:33;5.10;99.90
23186;DHT22;11761;51.324;4.590;2022-12-07T17:39:59;5.10;99.90
23186;DHT22;11761;51.324;4.590;2022-12-07T17:42:26;5.10;99.90
23186;DHT22;11761;51.324;4.590;2022-12-07T17:45:03;5.10;99.90
23186;DHT22;11761;51.324;4.590;2022-12-07T17:47:29;5.20;99.90
23186;DHT22;11761;51.324;4.590;2022-12-07T17:49:56;5.20;99.90
23186;DHT22;11761;51.324;4.590;2022-12-07T17:52:22;5.20;99.90
23186;DHT22;11761;51.324;4.590;2022-12-07T17:55:07;5.30;99.90
23186;DHT22;11761;51.324;4.590;2022-12-07T17:57:33;5.30;99.90
23186;DHT22;11761;51.324;4.590;2022-12-07T18:00:00;5.20;99.90
23186;DHT22;11761;51.324;4.590;2022-12-07T18:02:26;5.20;99.90
23186;DHT22;11761;51.324;4.590;2022-12-07T18:04:52;5.20;99.90
23186;DHT22;11761;51.324;4.590;2022-12-07T18:07:18;5.20;99.90
23186;DHT22;11761;51.324;4.590;2022-12-07T18:09:45;5.20;99.90
23186;DHT22;11761;51.324;4.590;2022-12-07T18:12:11;5.20;99.90
23186;DHT22;11761;51.324;4.590;2022-12-07T18:14:37;5.20;99.90
23186;DHT22;11761;51.324;4.590;2022-12-07T18:17:03;5.20;99.90
23186;DHT22;11761;51.324;4.590;2022-12-07T18:19:29;5.20;99.90
23186;DHT22;11761;51.324;4.590;2022-12-07T18:21:56;5.20;99.90
23186;DHT22;11761;51.324;4.590;2022-12-07T18:24:22;5.20;99.90
23186;DHT22;11761;51.324;4.590;2022-12-07T18:26:48;5.10;99.90